Nearby METAR Reports

 

KORD - Chicago O'hare, Illinois, USA
Distance from station: ESE 10mi, 16km
Updated: Fri, 23-Feb-2018 1:51pm CST
Overcast
Overcast
 Wind from W
Wind: W 10 mph , 17 km/h
Temperature: 39°F , 4°C
Wind Chill: 32°F , 0°C
Dew Point: 36°F , 2°C
Humidity: 87%
Barometer: 30.17 inHg , 1021.7 hPa
Clouds: Overcast
Visibility: 10 miles , 16 km
Cloud details: Overcast 1000 ft
2018/02/23 19:51 KORD 231951Z 26009KT 10SM OVC010 04/02 A3017 RMK AO2 SLP221 CIG 009V012 T00390017
KDPA - Chicago/Dupage, Illinois, USA
Distance from station: SW 11mi, 18km
Updated: Fri, 23-Feb-2018 1:52pm CST
Overcast
Overcast
 Wind from W
Wind: W 14 mph , 22 km/h, Gust: 23 mph , 37 km/h
Temperature: 37°F , 3°C
Wind Chill: 28°F , -2°C
Dew Point: 36°F , 2°C
Humidity: 93%
Barometer: 30.18 inHg , 1022 hPa
Clouds: Overcast
Visibility: 8 miles , 13 km
Cloud details: Overcast 700 ft
2018/02/23 19:52 KDPA 231952Z 26012G20KT 8SM OVC007 03/02 A3018 RMK AO2 SLP227 T00280017
 
KPWK - Palwaukee, Illinois, USA
Distance from station: ENE 12mi, 19km
Updated: Fri, 23-Feb-2018 1:52pm CST
Overcast
Overcast
 Wind from W
Wind: W 10 mph , 17 km/h
Temperature: 39°F , 4°C
Wind Chill: 32°F , 0°C
Dew Point: 36°F , 2°C
Humidity: 87%
Barometer: 30.18 inHg , 1022 hPa
Clouds: Overcast
Visibility: 10 miles , 16 km
Cloud details: Overcast 1100 ft
2018/02/23 19:52 KPWK 231952Z 27009KT 10SM OVC011 04/02 A3018 RMK AO2 SLP223 T00440022
KMDW - Chicago, Illinois, USA
Distance from station: SE 26mi, 41km
Updated: Fri, 23-Feb-2018 1:53pm CST
Overcast
Overcast
 Wind from W
Wind: W 13 mph , 20 km/h
Temperature: 41°F , 5°C
Wind Chill: 34°F , 1°C
Dew Point: 37°F , 3°C
Humidity: 87%
Barometer: 30.18 inHg , 1022 hPa
Clouds: Overcast
Visibility: 10 miles , 16 km
Cloud details: Overcast 1200 ft
2018/02/23 19:53 KMDW 231953Z 27011KT 10SM OVC012 05/03 A3018 RMK AO2 SLP228 T00500028
 
KARR - Chicago/Aurora, Illinois, USA
Distance from station: SW 27mi, 43km
Updated: Fri, 23-Feb-2018 1:52pm CST
Overcast
Overcast
 Wind from W
Wind: W 18 mph , 30 km/h
Temperature: 37°F , 3°C
Wind Chill: 27°F , -3°C
Dew Point: 36°F , 2°C
Humidity: 93%
Barometer: 30.20 inHg , 1022.7 hPa
Clouds: Overcast
Visibility: 10 miles , 16 km
Cloud details: Overcast 700 ft
2018/02/23 19:52 KARR 231952Z 27016KT 10SM OVC007 03/02 A3020 RMK AO2 CIG 007V011 SLP233 T00280017
KUGN - Waukegan, Illinois, USA
Distance from station: NNE 29mi, 47km
Updated: Fri, 23-Feb-2018 1:55pm CST
Overcast
Overcast
 Wind from varies
Wind: varies 5 mph , 7 km/h, Gust: 20 mph , 31 km/h
Temperature: 37°F , 3°C
Wind Chill: 33°F , 1°C
Dew Point: 36°F , 2°C
Humidity: 93%
Barometer: 30.14 inHg , 1020.7 hPa
Clouds: Overcast
Visibility: 10 miles , 16 km
Cloud details: Overcast 800 ft
2018/02/23 19:55 KUGN 231955Z VRB04G17KT 10SM OVC008 03/02 A3014 RMK AO2 SLP218 T00330017
 
KLOT - Romeoville/Chi, Illinois, USA
Distance from station: S 30mi, 49km
Updated: Fri, 23-Feb-2018 2:15pm CST
Overcast
Overcast
 Wind from W
Wind: W 15 mph , 24 km/h
Temperature: 37°F , 3°C
Wind Chill: 28°F , -2°C
Dew Point: 36°F , 2°C
Humidity: 93%
Barometer: 30.22 inHg , 1023.4 hPa
Clouds: Overcast
Visibility: 10 miles , 16 km
Cloud details: Overcast 800 ft
2018/02/23 20:15 KLOT 232015Z AUTO 28013KT 10SM OVC008 03/02 A3022 RMK AO2 T00310018
KDKB - De Kalb, Illinois, USA
Distance from station: WSW 31mi, 50km
Updated: Fri, 23-Feb-2018 2:15pm CST
Overcast
Overcast
 Wind from W
Wind: W 13 mph , 20 km/h
Temperature: 36°F , 2°C
Wind Chill: 27°F , -3°C
Dew Point: 34°F , 1°C
Humidity: 93%
Barometer: 30.20 inHg , 1022.7 hPa
Clouds: Overcast
Visibility: 10 miles , 16 km
Cloud details: Overcast 800 ft
2018/02/23 20:15 KDKB 232015Z AUTO 27011KT 10SM OVC008 02/01 A3020 RMK AO2 T00220008
 
KJOT - Joliet, Illinois, USA
Distance from station: S 36mi, 58km
Updated: Fri, 23-Feb-2018 2:15pm CST
Overcast
Overcast
 Wind from W
Wind: W 10 mph , 17 km/h
Temperature: 39°F , 4°C
Wind Chill: 32°F , 0°C
Dew Point: 36°F , 2°C
Humidity: 87%
Barometer: 30.22 inHg , 1023.4 hPa
Clouds: Overcast
Visibility: 10 miles , 16 km
Cloud details: Overcast 1000 ft
2018/02/23 20:15 KJOT 232015Z AUTO 27009KT 10SM OVC010 04/02 A3022 RMK AO2 T00410022
KENW - Kenosha, Wisconsin, USA
Distance from station: NNE 40mi, 64km
Updated: Fri, 23-Feb-2018 2:05pm CST
Overcast
Overcast
 Wind from W
Wind: W 13 mph , 20 km/h
Temperature: 39°F , 4°C
Wind Chill: 31°F , -1°C
Dew Point: 34°F , 1°C
Humidity: 81%
Barometer: 30.15 inHg , 1021 hPa
Clouds: Overcast
Visibility: 10 miles , 16 km
Cloud details: Overcast 1300 ft
2018/02/23 20:05 KENW 232005Z 26011KT 10SM OVC013 04/01 A3015 RMK AO2 T00390011
 
KC09 - Morris-Washburn, Illinois, USA
Distance from station: SSW 45mi, 72km
Updated: Fri, 23-Feb-2018 2:15pm CST
Overcast
Overcast
 Wind from W
Wind: W 12 mph , 19 km/h
Temperature: 37°F , 3°C
Wind Chill: 29°F , -2°C
Dew Point: 36°F , 2°C
Humidity: 93%
Barometer: 30.22 inHg , 1023.4 hPa
Clouds: Overcast
Visibility: 10 miles , 16 km
Cloud details: Overcast 900 ft
2018/02/23 20:15 KC09 232015Z AUTO 28010KT 10SM OVC009 03/02 A3022 RMK AO2 T00310018
KBUU - Burlington, Wisconsin, USA
Distance from station: NNW 46mi, 73km
Updated: Fri, 23-Feb-2018 2:15pm CST
Overcast
Overcast
 Wind from W
Wind: W 9 mph , 15 km/h
Temperature: 37°F , 3°C
Wind Chill: 30°F , -1°C
Dew Point: 32°F , 0°C
Humidity: 81%
Barometer: 30.16 inHg , 1021.3 hPa
Clouds: Overcast
Visibility: 10 miles , 16 km
Cloud details: Overcast 1600 ft
2018/02/23 20:15 KBUU 232015Z AUTO 27008KT 10SM OVC016 03/00 A3016 RMK AO2 T00271001
 
KGYY - Gary Regional, Indiana, USA
Distance from station: SE 46mi, 74km
Updated: Fri, 23-Feb-2018 1:45pm CST
Overcast
Overcast
 Wind from WSW
Wind: WSW 22 mph , 35 km/h
Temperature: 43°F , 6°C
Wind Chill: 34°F , 1°C
Dew Point: 37°F , 3°C
Humidity: 81%
Barometer: 30.20 inHg , 1022.7 hPa
Clouds: Overcast
Visibility: 10 miles , 16 km
Cloud details: Overcast 1200 ft
2018/02/23 19:45 KGYY 231945Z 25019KT 10SM OVC012 06/03 A3020
KIGQ - Chicago/Lansing, Illinois, USA
Distance from station: SE 46mi, 74km
Updated: Fri, 23-Feb-2018 2:15pm CST
Overcast
Overcast
 Wind from WSW
Wind: WSW 12 mph , 19 km/h
Temperature: 41°F , 5°C
Wind Chill: 34°F , 1°C
Dew Point: 39°F , 4°C
Humidity: 93%
Barometer: 30.20 inHg , 1022.7 hPa
Clouds: Overcast
Visibility: 10 miles , 16 km
Cloud details: Overcast 1000 ft
2018/02/23 20:15 KIGQ 232015Z AUTO 25010KT 10SM OVC010 05/04 A3020 RMK AO2 T00480036